sensor_id;sensor_type;location;lat;lon;timestamp;P1;durP1;ratioP1;P2;durP2;ratioP2
70132;SDS011;57495;49.922;7.966;2023-03-30T00:00:08;6.97;;;3.30;;
70132;SDS011;57495;49.922;7.966;2023-03-30T00:02:18;8.32;;;3.75;;
70132;SDS011;57495;49.922;7.966;2023-03-30T00:04:22;6.93;;;3.25;;
70132;SDS011;57495;49.922;7.966;2023-03-30T00:06:26;7.13;;;3.05;;
70132;SDS011;57495;49.922;7.966;2023-03-30T00:08:27;7.20;;;3.00;;
70132;SDS011;57495;49.922;7.966;2023-03-30T00:10:28;9.33;;;2.83;;
70132;SDS011;57495;49.922;7.966;2023-03-30T00:12:30;7.15;;;2.50;;
70132;SDS011;57495;49.922;7.966;2023-03-30T00:14:31;6.25;;;2.20;;
70132;SDS011;57495;49.922;7.966;2023-03-30T00:16:36;7.93;;;2.40;;
70132;SDS011;57495;49.922;7.966;2023-03-30T00:18:39;7.43;;;2.40;;
70132;SDS011;57495;49.922;7.966;2023-03-30T00:20:41;7.07;;;2.13;;
70132;SDS011;57495;49.922;7.966;2023-03-30T00:22:44;8.48;;;1.90;;
70132;SDS011;57495;49.922;7.966;2023-03-30T00:24:46;11.63;;;2.90;;
70132;SDS011;57495;49.922;7.966;2023-03-30T00:26:47;6.18;;;2.40;;
70132;SDS011;57495;49.922;7.966;2023-03-30T00:28:49;7.13;;;2.42;;
70132;SDS011;57495;49.922;7.966;2023-03-30T00:30:50;7.57;;;2.83;;
70132;SDS011;57495;49.922;7.966;2023-03-30T00:32:52;8.65;;;2.05;;
70132;SDS011;57495;49.922;7.966;2023-03-30T00:34:55;5.10;;;1.88;;
70132;SDS011;57495;49.922;7.966;2023-03-30T00:36:57;6.45;;;2.17;;
70132;SDS011;57495;49.922;7.966;2023-03-30T00:38:58;6.80;;;2.10;;
70132;SDS011;57495;49.922;7.966;2023-03-30T00:41:00;7.97;;;1.87;;
70132;SDS011;57495;49.922;7.966;2023-03-30T00:43:02;5.60;;;1.65;;
70132;SDS011;57495;49.922;7.966;2023-03-30T00:45:14;7.75;;;2.22;;
70132;SDS011;57495;49.922;7.966;2023-03-30T00:47:17;7.53;;;1.92;;
70132;SDS011;57495;49.922;7.966;2023-03-30T00:49:19;5.28;;;1.88;;
70132;SDS011;57495;49.922;7.966;2023-03-30T00:51:23;6.23;;;2.10;;
70132;SDS011;57495;49.922;7.966;2023-03-30T00:53:27;6.32;;;1.88;;
70132;SDS011;57495;49.922;7.966;2023-03-30T00:55:32;6.55;;;2.20;;
70132;SDS011;57495;49.922;7.966;2023-03-30T00:57:35;7.38;;;1.70;;
70132;SDS011;57495;49.922;7.966;2023-03-30T00:59:39;7.95;;;2.08;;
70132;SDS011;57495;49.922;7.966;2023-03-30T01:01:40;5.30;;;1.50;;
70132;SDS011;57495;49.922;7.966;2023-03-30T01:03:43;10.77;;;2.40;;
70132;SDS011;57495;49.922;7.966;2023-03-30T01:05:46;8.25;;;2.00;;
70132;SDS011;57495;49.922;7.966;2023-03-30T01:07:50;7.10;;;1.85;;
70132;SDS011;57495;49.922;7.966;2023-03-30T01:09:52;7.93;;;2.17;;
70132;SDS011;57495;49.922;7.966;2023-03-30T01:11:54;5.57;;;2.03;;
70132;SDS011;57495;49.922;7.966;2023-03-30T01:13:56;6.93;;;2.17;;
70132;SDS011;57495;49.922;7.966;2023-03-30T01:16:03;6.50;;;2.08;;
70132;SDS011;57495;49.922;7.966;2023-03-30T01:18:20;7.50;;;2.05;;
70132;SDS011;57495;49.922;7.966;2023-03-30T01:25:51;5.90;;;1.70;;
70132;SDS011;57495;49.922;7.966;2023-03-30T01:28:11;9.40;;;2.08;;
70132;SDS011;57495;49.922;7.966;2023-03-30T01:30:25;9.23;;;2.00;;
70132;SDS011;57495;49.922;7.966;2023-03-30T01:32:43;9.95;;;2.33;;
70132;SDS011;57495;49.922;7.966;2023-03-30T01:35:26;4.57;;;1.73;;
70132;SDS011;57495;49.922;7.966;2023-03-30T01:40:09;6.65;;;1.88;;
70132;SDS011;57495;49.922;7.966;2023-03-30T01:42:16;6.60;;;2.70;;
70132;SDS011;57495;49.922;7.966;2023-03-30T01:44:24;7.35;;;2.92;;
70132;SDS011;57495;49.922;7.966;2023-03-30T01:46:33;7.73;;;2.60;;
70132;SDS011;57495;49.922;7.966;2023-03-30T01:48:39;8.95;;;3.00;;
70132;SDS011;57495;49.922;7.966;2023-03-30T01:50:45;8.27;;;2.90;;
70132;SDS011;57495;49.922;7.966;2023-03-30T01:52:50;6.95;;;3.30;;
70132;SDS011;57495;49.922;7.966;2023-03-30T01:54:59;7.90;;;3.10;;
70132;SDS011;57495;49.922;7.966;2023-03-30T01:57:05;9.20;;;2.97;;
70132;SDS011;57495;49.922;7.966;2023-03-30T01:59:11;7.15;;;3.28;;
70132;SDS011;57495;49.922;7.966;2023-03-30T02:01:18;9.25;;;3.75;;
70132;SDS011;57495;49.922;7.966;2023-03-30T02:03:21;7.15;;;3.67;;
70132;SDS011;57495;49.922;7.966;2023-03-30T02:05:27;8.73;;;4.20;;
70132;SDS011;57495;49.922;7.966;2023-03-30T02:07:30;8.93;;;3.50;;
70132;SDS011;57495;49.922;7.966;2023-03-30T02:09:36;8.15;;;2.70;;
70132;SDS011;57495;49.922;7.966;2023-03-30T02:11:41;8.95;;;2.35;;
70132;SDS011;57495;49.922;7.966;2023-03-30T02:13:47;7.93;;;2.95;;
70132;SDS011;57495;49.922;7.966;2023-03-30T02:15:52;7.93;;;2.70;;
70132;SDS011;57495;49.922;7.966;2023-03-30T02:17:58;8.27;;;3.20;;
70132;SDS011;57495;49.922;7.966;2023-03-30T02:19:59;9.05;;;2.90;;
70132;SDS011;57495;49.922;7.966;2023-03-30T02:22:01;7.82;;;2.55;;
70132;SDS011;57495;49.922;7.966;2023-03-30T02:24:03;8.20;;;2.90;;
70132;SDS011;57495;49.922;7.966;2023-03-30T02:26:08;8.55;;;2.55;;
70132;SDS011;57495;49.922;7.966;2023-03-30T02:28:10;8.10;;;2.30;;
70132;SDS011;57495;49.922;7.966;2023-03-30T02:30:13;6.32;;;2.28;;
70132;SDS011;57495;49.922;7.966;2023-03-30T02:32:17;9.13;;;2.47;;
70132;SDS011;57495;49.922;7.966;2023-03-30T02:34:23;6.15;;;2.03;;
70132;SDS011;57495;49.922;7.966;2023-03-30T02:36:40;11.15;;;2.53;;
70132;SDS011;57495;49.922;7.966;2023-03-30T02:39:01;13.07;;;2.70;;
70132;SDS011;57495;49.922;7.966;2023-03-30T02:41:12;13.02;;;2.22;;
70132;SDS011;57495;49.922;7.966;2023-03-30T02:43:32;10.30;;;2.08;;
70132;SDS011;57495;49.922;7.966;2023-03-30T02:45:43;9.48;;;2.17;;
70132;SDS011;57495;49.922;7.966;2023-03-30T02:47:54;11.00;;;3.25;;
70132;SDS011;57495;49.922;7.966;2023-03-30T02:50:08;8.57;;;2.50;;
70132;SDS011;57495;49.922;7.966;2023-03-30T02:52:21;6.50;;;2.20;;
70132;SDS011;57495;49.922;7.966;2023-03-30T02:54:34;14.40;;;3.38;;
70132;SDS011;57495;49.922;7.966;2023-03-30T02:56:45;10.23;;;2.58;;
70132;SDS011;57495;49.922;7.966;2023-03-30T02:58:52;12.23;;;2.30;;
70132;SDS011;57495;49.922;7.966;2023-03-30T03:00:59;7.87;;;1.50;;
70132;SDS011;57495;49.922;7.966;2023-03-30T03:03:06;11.70;;;2.25;;
70132;SDS011;57495;49.922;7.966;2023-03-30T03:05:14;6.18;;;2.35;;
70132;SDS011;57495;49.922;7.966;2023-03-30T03:07:16;11.32;;;2.53;;
70132;SDS011;57495;49.922;7.966;2023-03-30T03:09:19;7.60;;;2.47;;
70132;SDS011;57495;49.922;7.966;2023-03-30T03:11:24;12.10;;;2.40;;
70132;SDS011;57495;49.922;7.966;2023-03-30T03:13:26;9.45;;;2.40;;
70132;SDS011;57495;49.922;7.966;2023-03-30T03:15:27;10.00;;;2.28;;
70132;SDS011;57495;49.922;7.966;2023-03-30T03:17:30;11.57;;;2.05;;
70132;SDS011;57495;49.922;7.966;2023-03-30T03:19:33;8.80;;;2.47;;
70132;SDS011;57495;49.922;7.966;2023-03-30T03:21:35;9.53;;;2.10;;
70132;SDS011;57495;49.922;7.966;2023-03-30T03:23:37;9.77;;;1.95;;
70132;SDS011;57495;49.922;7.966;2023-03-30T03:25:38;10.07;;;2.00;;
70132;SDS011;57495;49.922;7.966;2023-03-30T03:27:39;6.50;;;1.80;;
70132;SDS011;57495;49.922;7.966;2023-03-30T03:29:41;12.48;;;2.55;;
70132;SDS011;57495;49.922;7.966;2023-03-30T03:31:42;9.03;;;2.03;;
70132;SDS011;57495;49.922;7.966;2023-03-30T03:33:45;8.73;;;1.80;;
70132;SDS011;57495;49.922;7.966;2023-03-30T03:35:46;6.68;;;1.88;;
70132;SDS011;57495;49.922;7.966;2023-03-30T03:37:52;8.30;;;1.63;;
70132;SDS011;57495;49.922;7.966;2023-03-30T03:39:54;6.70;;;1.27;;
70132;SDS011;57495;49.922;7.966;2023-03-30T03:41:55;9.80;;;1.60;;
70132;SDS011;57495;49.922;7.966;2023-03-30T03:43:57;9.52;;;1.90;;
70132;SDS011;57495;49.922;7.966;2023-03-30T03:45:58;11.02;;;1.95;;
70132;SDS011;57495;49.922;7.966;2023-03-30T03:48:00;9.73;;;1.75;;
70132;SDS011;57495;49.922;7.966;2023-03-30T03:50:02;8.60;;;1.50;;
70132;SDS011;57495;49.922;7.966;2023-03-30T03:52:08;9.50;;;1.40;;
70132;SDS011;57495;49.922;7.966;2023-03-30T03:54:09;5.97;;;1.42;;
70132;SDS011;57495;49.922;7.966;2023-03-30T03:56:11;6.95;;;1.45;;
70132;SDS011;57495;49.922;7.966;2023-03-30T03:58:13;7.60;;;1.20;;
70132;SDS011;57495;49.922;7.966;2023-03-30T04:00:15;7.80;;;1.92;;
70132;SDS011;57495;49.922;7.966;2023-03-30T04:02:17;5.07;;;1.17;;
70132;SDS011;57495;49.922;7.966;2023-03-30T04:04:18;9.32;;;1.75;;
70132;SDS011;57495;49.922;7.966;2023-03-30T04:06:21;10.20;;;2.10;;
70132;SDS011;57495;49.922;7.966;2023-03-30T04:08:23;10.45;;;1.90;;
70132;SDS011;57495;49.922;7.966;2023-03-30T04:10:25;7.32;;;1.88;;
70132;SDS011;57495;49.922;7.966;2023-03-30T04:12:27;7.77;;;2.63;;
70132;SDS011;57495;49.922;7.966;2023-03-30T04:14:28;9.38;;;2.80;;
70132;SDS011;57495;49.922;7.966;2023-03-30T04:16:30;10.70;;;3.30;;
70132;SDS011;57495;49.922;7.966;2023-03-30T04:18:32;11.13;;;3.28;;
70132;SDS011;57495;49.922;7.966;2023-03-30T04:20:34;12.45;;;3.55;;
70132;SDS011;57495;49.922;7.966;2023-03-30T04:22:37;10.87;;;3.10;;
70132;SDS011;57495;49.922;7.966;2023-03-30T04:24:40;7.70;;;2.80;;
70132;SDS011;57495;49.922;7.966;2023-03-30T04:26:43;8.32;;;3.38;;
70132;SDS011;57495;49.922;7.966;2023-03-30T04:28:48;8.73;;;3.03;;
70132;SDS011;57495;49.922;7.966;2023-03-30T04:30:55;7.78;;;3.00;;
70132;SDS011;57495;49.922;7.966;2023-03-30T04:32:58;11.73;;;2.80;;
70132;SDS011;57495;49.922;7.966;2023-03-30T04:35:03;7.00;;;2.88;;
70132;SDS011;57495;49.922;7.966;2023-03-30T04:37:05;9.75;;;2.83;;
70132;SDS011;57495;49.922;7.966;2023-03-30T04:39:08;10.52;;;3.10;;
70132;SDS011;57495;49.922;7.966;2023-03-30T04:41:10;7.97;;;2.58;;
70132;SDS011;57495;49.922;7.966;2023-03-30T04:43:13;13.37;;;2.97;;
70132;SDS011;57495;49.922;7.966;2023-03-30T04:45:14;8.95;;;2.75;;
70132;SDS011;57495;49.922;7.966;2023-03-30T04:47:17;11.27;;;3.70;;
70132;SDS011;57495;49.922;7.966;2023-03-30T04:49:18;7.43;;;2.85;;
70132;SDS011;57495;49.922;7.966;2023-03-30T04:51:20;14.43;;;2.75;;
70132;SDS011;57495;49.922;7.966;2023-03-30T04:53:22;8.87;;;2.77;;
70132;SDS011;57495;49.922;7.966;2023-03-30T04:55:25;12.50;;;2.15;;
70132;SDS011;57495;49.922;7.966;2023-03-30T04:57:26;9.65;;;2.22;;
70132;SDS011;57495;49.922;7.966;2023-03-30T04:59:27;7.85;;;2.00;;
70132;SDS011;57495;49.922;7.966;2023-03-30T05:01:29;10.80;;;2.38;;
70132;SDS011;57495;49.922;7.966;2023-03-30T05:03:30;12.97;;;1.80;;
70132;SDS011;57495;49.922;7.966;2023-03-30T05:05:32;8.23;;;2.08;;
70132;SDS011;57495;49.922;7.966;2023-03-30T05:07:33;8.75;;;2.00;;
70132;SDS011;57495;49.922;7.966;2023-03-30T05:09:35;13.45;;;1.95;;
70132;SDS011;57495;49.922;7.966;2023-03-30T05:11:38;13.75;;;2.65;;
70132;SDS011;57495;49.922;7.966;2023-03-30T05:13:39;13.47;;;2.00;;
70132;SDS011;57495;49.922;7.966;2023-03-30T05:15:41;10.10;;;1.92;;
70132;SDS011;57495;49.922;7.966;2023-03-30T05:17:42;9.40;;;2.65;;
70132;SDS011;57495;49.922;7.966;2023-03-30T05:19:43;15.32;;;2.72;;
70132;SDS011;57495;49.922;7.966;2023-03-30T05:21:45;8.15;;;2.05;;
70132;SDS011;57495;49.922;7.966;2023-03-30T05:23:47;10.20;;;2.33;;
70132;SDS011;57495;49.922;7.966;2023-03-30T05:25:48;9.63;;;2.13;;
70132;SDS011;57495;49.922;7.966;2023-03-30T05:27:51;14.35;;;2.88;;
70132;SDS011;57495;49.922;7.966;2023-03-30T05:29:53;9.63;;;2.60;;
70132;SDS011;57495;49.922;7.966;2023-03-30T05:31:54;13.48;;;2.58;;
70132;SDS011;57495;49.922;7.966;2023-03-30T05:33:55;10.00;;;2.00;;
70132;SDS011;57495;49.922;7.966;2023-03-30T05:35:57;11.10;;;2.83;;
70132;SDS011;57495;49.922;7.966;2023-03-30T05:37:58;10.43;;;2.50;;
70132;SDS011;57495;49.922;7.966;2023-03-30T05:40:00;13.45;;;2.33;;
70132;SDS011;57495;49.922;7.966;2023-03-30T05:42:04;12.98;;;2.60;;
70132;SDS011;57495;49.922;7.966;2023-03-30T05:44:07;7.63;;;1.70;;
70132;SDS011;57495;49.922;7.966;2023-03-30T05:46:09;10.57;;;2.20;;
70132;SDS011;57495;49.922;7.966;2023-03-30T05:48:10;11.57;;;2.55;;
70132;SDS011;57495;49.922;7.966;2023-03-30T05:50:12;10.43;;;2.30;;
70132;SDS011;57495;49.922;7.966;2023-03-30T05:52:13;7.25;;;2.20;;
70132;SDS011;57495;49.922;7.966;2023-03-30T05:54:15;9.20;;;2.23;;
70132;SDS011;57495;49.922;7.966;2023-03-30T05:56:16;16.05;;;3.35;;
70132;SDS011;57495;49.922;7.966;2023-03-30T05:58:18;11.75;;;2.58;;
70132;SDS011;57495;49.922;7.966;2023-03-30T06:00:21;9.57;;;2.30;;
70132;SDS011;57495;49.922;7.966;2023-03-30T06:02:23;12.85;;;2.75;;
70132;SDS011;57495;49.922;7.966;2023-03-30T06:04:26;11.77;;;2.67;;
70132;SDS011;57495;49.922;7.966;2023-03-30T06:06:27;13.20;;;2.97;;
70132;SDS011;57495;49.922;7.966;2023-03-30T06:08:29;9.88;;;2.25;;
70132;SDS011;57495;49.922;7.966;2023-03-30T06:10:30;8.85;;;2.75;;
70132;SDS011;57495;49.922;7.966;2023-03-30T06:12:32;10.23;;;2.60;;
70132;SDS011;57495;49.922;7.966;2023-03-30T06:14:34;10.30;;;2.70;;
70132;SDS011;57495;49.922;7.966;2023-03-30T06:16:37;13.20;;;2.95;;
70132;SDS011;57495;49.922;7.966;2023-03-30T06:18:38;10.32;;;2.63;;
70132;SDS011;57495;49.922;7.966;2023-03-30T06:20:40;15.57;;;2.78;;
70132;SDS011;57495;49.922;7.966;2023-03-30T06:22:41;10.07;;;2.35;;
70132;SDS011;57495;49.922;7.966;2023-03-30T06:24:42;10.23;;;2.50;;
70132;SDS011;57495;49.922;7.966;2023-03-30T06:26:44;11.95;;;2.40;;
70132;SDS011;57495;49.922;7.966;2023-03-30T06:28:46;12.32;;;3.47;;
70132;SDS011;57495;49.922;7.966;2023-03-30T06:30:47;10.70;;;2.78;;
70132;SDS011;57495;49.922;7.966;2023-03-30T06:32:50;16.13;;;2.78;;
70132;SDS011;57495;49.922;7.966;2023-03-30T06:34:52;11.67;;;2.60;;
70132;SDS011;57495;49.922;7.966;2023-03-30T06:36:53;9.55;;;2.55;;
70132;SDS011;57495;49.922;7.966;2023-03-30T06:38:55;10.00;;;2.38;;
70132;SDS011;57495;49.922;7.966;2023-03-30T06:40:56;10.80;;;2.60;;
70132;SDS011;57495;49.922;7.966;2023-03-30T06:42:58;11.25;;;2.72;;
70132;SDS011;57495;49.922;7.966;2023-03-30T06:45:00;7.60;;;2.10;;
70132;SDS011;57495;49.922;7.966;2023-03-30T06:47:02;8.68;;;2.10;;
70132;SDS011;57495;49.922;7.966;2023-03-30T06:49:06;9.85;;;2.55;;
70132;SDS011;57495;49.922;7.966;2023-03-30T06:51:08;7.18;;;1.42;;
70132;SDS011;57495;49.922;7.966;2023-03-30T06:53:12;9.07;;;1.70;;
70132;SDS011;57495;49.922;7.966;2023-03-30T06:55:14;12.20;;;2.03;;
70132;SDS011;57495;49.922;7.966;2023-03-30T06:57:15;6.47;;;2.20;;
70132;SDS011;57495;49.922;7.966;2023-03-30T06:59:17;6.22;;;1.90;;
70132;SDS011;57495;49.922;7.966;2023-03-30T07:01:18;6.75;;;1.80;;
70132;SDS011;57495;49.922;7.966;2023-03-30T07:03:20;6.45;;;1.88;;
70132;SDS011;57495;49.922;7.966;2023-03-30T07:05:23;6.60;;;2.37;;
70132;SDS011;57495;49.922;7.966;2023-03-30T07:07:24;11.15;;;2.00;;
70132;SDS011;57495;49.922;7.966;2023-03-30T07:09:26;9.93;;;2.00;;
70132;SDS011;57495;49.922;7.966;2023-03-30T07:11:27;6.50;;;1.92;;
70132;SDS011;57495;49.922;7.966;2023-03-30T07:13:28;8.20;;;2.05;;
70132;SDS011;57495;49.922;7.966;2023-03-30T07:15:30;6.77;;;2.33;;
70132;SDS011;57495;49.922;7.966;2023-03-30T07:17:31;8.07;;;2.13;;
70132;SDS011;57495;49.922;7.966;2023-03-30T07:19:33;9.45;;;3.15;;
70132;SDS011;57495;49.922;7.966;2023-03-30T07:21:36;7.55;;;2.75;;
70132;SDS011;57495;49.922;7.966;2023-03-30T07:23:38;6.60;;;2.25;;
70132;SDS011;57495;49.922;7.966;2023-03-30T07:25:40;8.30;;;2.03;;
70132;SDS011;57495;49.922;7.966;2023-03-30T07:27:42;8.65;;;2.90;;
70132;SDS011;57495;49.922;7.966;2023-03-30T07:29:43;6.00;;;1.90;;
70132;SDS011;57495;49.922;7.966;2023-03-30T07:31:44;8.15;;;2.22;;
70132;SDS011;57495;49.922;7.966;2023-03-30T07:33:46;10.35;;;2.58;;
70132;SDS011;57495;49.922;7.966;2023-03-30T07:35:48;8.47;;;2.40;;
70132;SDS011;57495;49.922;7.966;2023-03-30T07:37:51;8.10;;;2.47;;
70132;SDS011;57495;49.922;7.966;2023-03-30T07:39:52;6.85;;;2.40;;
70132;SDS011;57495;49.922;7.966;2023-03-30T07:41:54;7.35;;;2.00;;
70132;SDS011;57495;49.922;7.966;2023-03-30T07:43:55;7.45;;;2.40;;
70132;SDS011;57495;49.922;7.966;2023-03-30T07:45:57;7.90;;;2.30;;
70132;SDS011;57495;49.922;7.966;2023-03-30T07:47:58;6.50;;;1.83;;
70132;SDS011;57495;49.922;7.966;2023-03-30T07:50:00;6.25;;;2.40;;
70132;SDS011;57495;49.922;7.966;2023-03-30T07:52:02;8.63;;;2.42;;
70132;SDS011;57495;49.922;7.966;2023-03-30T07:54:04;7.32;;;2.00;;
70132;SDS011;57495;49.922;7.966;2023-03-30T07:56:06;7.40;;;2.10;;
70132;SDS011;57495;49.922;7.966;2023-03-30T07:58:08;9.50;;;2.38;;
70132;SDS011;57495;49.922;7.966;2023-03-30T08:00:10;5.85;;;2.50;;
70132;SDS011;57495;49.922;7.966;2023-03-30T08:02:14;8.60;;;3.00;;
70132;SDS011;57495;49.922;7.966;2023-03-30T08:04:15;9.35;;;4.28;;
70132;SDS011;57495;49.922;7.966;2023-03-30T08:06:17;8.20;;;3.23;;
70132;SDS011;57495;49.922;7.966;2023-03-30T08:08:18;9.48;;;2.72;;
70132;SDS011;57495;49.922;7.966;2023-03-30T08:10:21;7.97;;;2.20;;
70132;SDS011;57495;49.922;7.966;2023-03-30T08:12:23;7.38;;;2.42;;
70132;SDS011;57495;49.922;7.966;2023-03-30T08:14:24;10.13;;;2.72;;
70132;SDS011;57495;49.922;7.966;2023-03-30T08:16:26;8.70;;;2.17;;
70132;SDS011;57495;49.922;7.966;2023-03-30T08:18:28;9.02;;;2.53;;
70132;SDS011;57495;49.922;7.966;2023-03-30T08:20:29;10.25;;;2.40;;
70132;SDS011;57495;49.922;7.966;2023-03-30T08:22:31;5.78;;;1.90;;
70132;SDS011;57495;49.922;7.966;2023-03-30T08:24:33;7.78;;;2.60;;
70132;SDS011;57495;49.922;7.966;2023-03-30T08:26:35;5.13;;;2.13;;
70132;SDS011;57495;49.922;7.966;2023-03-30T08:28:37;5.80;;;2.10;;
70132;SDS011;57495;49.922;7.966;2023-03-30T08:30:39;8.18;;;2.45;;
70132;SDS011;57495;49.922;7.966;2023-03-30T08:32:40;8.25;;;2.95;;
70132;SDS011;57495;49.922;7.966;2023-03-30T08:34:41;5.85;;;2.10;;
70132;SDS011;57495;49.922;7.966;2023-03-30T08:36:43;8.63;;;2.30;;
70132;SDS011;57495;49.922;7.966;2023-03-30T08:38:45;6.78;;;2.53;;
70132;SDS011;57495;49.922;7.966;2023-03-30T08:40:46;5.40;;;2.13;;
70132;SDS011;57495;49.922;7.966;2023-03-30T08:42:57;6.30;;;2.40;;
70132;SDS011;57495;49.922;7.966;2023-03-30T08:45:18;8.45;;;2.25;;
70132;SDS011;57495;49.922;7.966;2023-03-30T08:47:21;7.63;;;1.90;;
70132;SDS011;57495;49.922;7.966;2023-03-30T08:49:34;6.47;;;2.50;;
70132;SDS011;57495;49.922;7.966;2023-03-30T08:51:41;5.38;;;2.15;;
70132;SDS011;57495;49.922;7.966;2023-03-30T08:53:42;6.80;;;2.60;;
70132;SDS011;57495;49.922;7.966;2023-03-30T08:55:45;5.57;;;2.03;;
70132;SDS011;57495;49.922;7.966;2023-03-30T08:57:50;5.70;;;1.63;;
70132;SDS011;57495;49.922;7.966;2023-03-30T08:59:57;5.35;;;1.50;;
70132;SDS011;57495;49.922;7.966;2023-03-30T09:02:13;5.68;;;2.10;;
70132;SDS011;57495;49.922;7.966;2023-03-30T09:04:19;5.85;;;2.08;;
70132;SDS011;57495;49.922;7.966;2023-03-30T09:06:29;7.00;;;2.20;;
70132;SDS011;57495;49.922;7.966;2023-03-30T09:08:41;7.63;;;1.90;;
70132;SDS011;57495;49.922;7.966;2023-03-30T09:10:44;5.53;;;1.55;;
70132;SDS011;57495;49.922;7.966;2023-03-30T09:12:50;7.70;;;2.17;;
70132;SDS011;57495;49.922;7.966;2023-03-30T09:14:57;6.10;;;1.60;;
70132;SDS011;57495;49.922;7.966;2023-03-30T09:17:04;5.20;;;1.70;;
70132;SDS011;57495;49.922;7.966;2023-03-30T09:19:12;5.53;;;1.87;;
70132;SDS011;57495;49.922;7.966;2023-03-30T09:21:20;5.80;;;2.53;;
70132;SDS011;57495;49.922;7.966;2023-03-30T09:23:25;7.55;;;2.25;;
70132;SDS011;57495;49.922;7.966;2023-03-30T09:25:30;6.32;;;1.73;;
70132;SDS011;57495;49.922;7.966;2023-03-30T09:27:41;6.28;;;1.70;;
70132;SDS011;57495;49.922;7.966;2023-03-30T09:29:47;5.37;;;1.50;;
70132;SDS011;57495;49.922;7.966;2023-03-30T09:31:53;7.32;;;2.13;;
70132;SDS011;57495;49.922;7.966;2023-03-30T09:34:02;7.28;;;1.65;;
70132;SDS011;57495;49.922;7.966;2023-03-30T09:36:07;8.30;;;1.80;;
70132;SDS011;57495;49.922;7.966;2023-03-30T09:38:13;5.47;;;1.88;;
70132;SDS011;57495;49.922;7.966;2023-03-30T09:40:21;9.37;;;2.10;;
70132;SDS011;57495;49.922;7.966;2023-03-30T09:42:32;9.88;;;1.80;;
70132;SDS011;57495;49.922;7.966;2023-03-30T09:44:43;5.60;;;1.98;;
70132;SDS011;57495;49.922;7.966;2023-03-30T09:46:48;7.18;;;2.10;;
70132;SDS011;57495;49.922;7.966;2023-03-30T09:49:10;8.25;;;1.80;;
70132;SDS011;57495;49.922;7.966;2023-03-30T09:51:17;6.97;;;1.37;;
70132;SDS011;57495;49.922;7.966;2023-03-30T09:53:21;5.78;;;1.75;;
70132;SDS011;57495;49.922;7.966;2023-03-30T09:55:26;7.70;;;2.17;;
70132;SDS011;57495;49.922;7.966;2023-03-30T09:57:30;5.07;;;1.25;;
70132;SDS011;57495;49.922;7.966;2023-03-30T09:59:33;5.20;;;1.55;;
70132;SDS011;57495;49.922;7.966;2023-03-30T10:01:36;5.63;;;1.47;;
70132;SDS011;57495;49.922;7.966;2023-03-30T10:03:39;6.57;;;1.83;;
70132;SDS011;57495;49.922;7.966;2023-03-30T10:05:42;6.15;;;1.50;;
70132;SDS011;57495;49.922;7.966;2023-03-30T10:07:43;7.15;;;1.85;;
70132;SDS011;57495;49.922;7.966;2023-03-30T10:09:53;5.93;;;1.38;;
70132;SDS011;57495;49.922;7.966;2023-03-30T10:11:56;7.43;;;1.50;;
70132;SDS011;57495;49.922;7.966;2023-03-30T10:13:58;5.45;;;1.00;;
70132;SDS011;57495;49.922;7.966;2023-03-30T10:16:02;5.50;;;1.55;;
70132;SDS011;57495;49.922;7.966;2023-03-30T10:18:16;6.40;;;1.50;;
70132;SDS011;57495;49.922;7.966;2023-03-30T10:20:26;4.05;;;1.20;;
70132;SDS011;57495;49.922;7.966;2023-03-30T10:22:29;5.50;;;1.10;;
70132;SDS011;57495;49.922;7.966;2023-03-30T10:24:31;3.95;;;1.00;;
70132;SDS011;57495;49.922;7.966;2023-03-30T10:26:36;7.00;;;1.38;;
70132;SDS011;57495;49.922;7.966;2023-03-30T10:28:38;5.55;;;1.30;;
70132;SDS011;57495;49.922;7.966;2023-03-30T10:30:40;4.72;;;1.20;;
70132;SDS011;57495;49.922;7.966;2023-03-30T10:32:42;7.53;;;0.90;;
70132;SDS011;57495;49.922;7.966;2023-03-30T10:34:46;3.75;;;0.80;;
70132;SDS011;57495;49.922;7.966;2023-03-30T10:36:52;6.70;;;1.55;;
70132;SDS011;57495;49.922;7.966;2023-03-30T10:38:54;6.38;;;1.27;;
70132;SDS011;57495;49.922;7.966;2023-03-30T10:41:06;6.63;;;0.85;;
70132;SDS011;57495;49.922;7.966;2023-03-30T10:43:12;6.47;;;0.93;;
70132;SDS011;57495;49.922;7.966;2023-03-30T10:45:15;4.70;;;1.05;;
70132;SDS011;57495;49.922;7.966;2023-03-30T10:47:25;5.22;;;1.10;;
70132;SDS011;57495;49.922;7.966;2023-03-30T10:49:38;7.97;;;1.10;;
70132;SDS011;57495;49.922;7.966;2023-03-30T10:51:52;7.53;;;1.67;;
70132;SDS011;57495;49.922;7.966;2023-03-30T10:54:04;6.10;;;1.27;;
70132;SDS011;57495;49.922;7.966;2023-03-30T10:56:15;6.85;;;1.73;;
70132;SDS011;57495;49.922;7.966;2023-03-30T10:58:30;5.88;;;0.70;;
70132;SDS011;57495;49.922;7.966;2023-03-30T11:00:48;4.15;;;0.82;;
70132;SDS011;57495;49.922;7.966;2023-03-30T11:02:59;6.18;;;0.82;;
70132;SDS011;57495;49.922;7.966;2023-03-30T11:05:09;5.50;;;0.93;;
70132;SDS011;57495;49.922;7.966;2023-03-30T11:07:26;5.68;;;1.40;;
70132;SDS011;57495;49.922;7.966;2023-03-30T11:09:33;6.22;;;0.85;;
70132;SDS011;57495;49.922;7.966;2023-03-30T11:11:40;6.55;;;1.50;;
70132;SDS011;57495;49.922;7.966;2023-03-30T11:13:48;5.60;;;0.98;;
70132;SDS011;57495;49.922;7.966;2023-03-30T11:15:55;6.07;;;0.90;;
70132;SDS011;57495;49.922;7.966;2023-03-30T11:18:01;4.50;;;0.90;;
70132;SDS011;57495;49.922;7.966;2023-03-30T11:20:14;7.70;;;1.40;;
70132;SDS011;57495;49.922;7.966;2023-03-30T11:22:24;5.47;;;1.30;;
70132;SDS011;57495;49.922;7.966;2023-03-30T11:24:29;3.97;;;0.88;;
70132;SDS011;57495;49.922;7.966;2023-03-30T11:26:33;5.90;;;1.00;;
70132;SDS011;57495;49.922;7.966;2023-03-30T11:28:45;5.47;;;1.00;;
70132;SDS011;57495;49.922;7.966;2023-03-30T11:30:53;3.67;;;0.60;;
70132;SDS011;57495;49.922;7.966;2023-03-30T11:32:57;5.72;;;0.90;;
70132;SDS011;57495;49.922;7.966;2023-03-30T11:35:09;5.80;;;1.10;;
70132;SDS011;57495;49.922;7.966;2023-03-30T11:37:17;3.23;;;0.70;;
70132;SDS011;57495;49.922;7.966;2023-03-30T11:39:28;4.20;;;0.60;;
70132;SDS011;57495;49.922;7.966;2023-03-30T11:41:33;4.55;;;0.60;;
70132;SDS011;57495;49.922;7.966;2023-03-30T11:43:38;5.25;;;0.70;;
70132;SDS011;57495;49.922;7.966;2023-03-30T11:45:41;4.07;;;1.00;;
70132;SDS011;57495;49.922;7.966;2023-03-30T11:47:57;4.33;;;0.80;;
70132;SDS011;57495;49.922;7.966;2023-03-30T11:50:10;4.30;;;0.50;;
70132;SDS011;57495;49.922;7.966;2023-03-30T11:52:26;3.80;;;0.82;;
70132;SDS011;57495;49.922;7.966;2023-03-30T11:54:36;5.13;;;0.80;;
70132;SDS011;57495;49.922;7.966;2023-03-30T11:56:49;4.35;;;0.85;;
70132;SDS011;57495;49.922;7.966;2023-03-30T11:58:59;4.83;;;1.00;;
70132;SDS011;57495;49.922;7.966;2023-03-30T12:01:20;4.82;;;0.85;;
70132;SDS011;57495;49.922;7.966;2023-03-30T12:03:38;5.13;;;0.90;;
70132;SDS011;57495;49.922;7.966;2023-03-30T12:05:43;5.40;;;0.68;;
70132;SDS011;57495;49.922;7.966;2023-03-30T12:07:48;5.50;;;0.65;;
70132;SDS011;57495;49.922;7.966;2023-03-30T12:09:57;4.07;;;0.70;;
70132;SDS011;57495;49.922;7.966;2023-03-30T12:12:03;2.67;;;0.40;;
70132;SDS011;57495;49.922;7.966;2023-03-30T12:14:23;5.07;;;0.80;;
70132;SDS011;57495;49.922;7.966;2023-03-30T12:16:44;3.25;;;0.70;;
70132;SDS011;57495;49.922;7.966;2023-03-30T12:18:55;7.15;;;2.05;;
70132;SDS011;57495;49.922;7.966;2023-03-30T12:21:10;5.63;;;1.03;;
70132;SDS011;57495;49.922;7.966;2023-03-30T12:23:21;4.53;;;0.40;;
70132;SDS011;57495;49.922;7.966;2023-03-30T12:25:38;3.60;;;0.55;;
70132;SDS011;57495;49.922;7.966;2023-03-30T12:28:01;4.88;;;0.77;;
70132;SDS011;57495;49.922;7.966;2023-03-30T12:30:10;5.38;;;0.70;;
70132;SDS011;57495;49.922;7.966;2023-03-30T12:32:19;3.60;;;0.40;;
70132;SDS011;57495;49.922;7.966;2023-03-30T12:34:23;6.50;;;0.65;;
70132;SDS011;57495;49.922;7.966;2023-03-30T12:36:31;7.95;;;0.90;;
70132;SDS011;57495;49.922;7.966;2023-03-30T12:38:37;6.28;;;1.08;;